Terminal Aerodrome Forecast
Issued by NWS

Home | Current Version | Previous Version | Text Only | Print | Product List | Glossary On
Versions: 1 2 3 4 5 6 7 8 9 10 11 12 13 14 15 16 17 18 19 20
005
FTUS43 KEAX 192320
TAFSTJ
TAF
KSTJ 192320Z 2000/2024 16007KT P6SM BKN200
     FM200900 17009KT 5SM -SHRA BR OVC025
     FM201400 18010KT P6SM VCSH OVC015
     FM201600 18011KT P6SM OVC035
     FM201800 20012KT P6SM BKN120=

USA.gov is the U.S. government's official web portal to all federal, state and local government web resources and services.